createdAt,value
2023-05-12T00:01:14.531Z,100148.44
2023-05-12T00:03:41.820Z,100133.94
2023-05-12T00:06:08.689Z,100132.66
2023-05-12T00:08:35.352Z,100142.91
2023-05-12T00:11:02.435Z,100149.06
2023-05-12T00:13:29.194Z,100119.72
2023-05-12T00:15:59.229Z,100141.03
2023-05-12T00:18:28.750Z,100148.59
2023-05-12T00:20:55.987Z,100156.81
2023-05-12T00:23:25.284Z,100120.06
2023-05-12T00:25:51.939Z,100128.47
2023-05-12T00:28:19.139Z,100131.38
2023-05-12T00:30:46.099Z,100139.19
2023-05-12T00:33:17.271Z,100117.03
2023-05-12T00:35:45.717Z,100139.66
2023-05-12T00:38:13.194Z,100129.44
2023-05-12T00:40:40.809Z,100141.94
2023-05-12T00:43:08.690Z,100152.91
2023-05-12T00:45:35.537Z,100125.59
2023-05-12T00:48:02.253Z,100162.44
2023-05-12T00:50:29.088Z,100163.16
2023-05-12T00:52:55.819Z,100111.59
2023-05-12T00:55:22.615Z,100112.22
2023-05-12T00:57:49.423Z,100128.13
2023-05-12T01:00:16.516Z,100150.38
2023-05-12T01:02:43.303Z,100146.75
2023-05-12T01:05:10.517Z,100140.50
2023-05-12T01:07:39.307Z,100164.34
2023-05-12T01:10:17.992Z,100156.47
2023-05-12T01:12:44.963Z,100172.53
2023-05-12T01:15:12.966Z,100137.47
2023-05-12T01:17:42.422Z,100104.59
2023-05-12T01:20:12.461Z,100139.19
2023-05-12T01:22:39.770Z,100136.91
2023-05-12T01:25:08.957Z,100164.75
2023-05-12T01:27:37.288Z,100151.22
2023-05-12T01:30:05.899Z,100176.47
2023-05-12T01:32:32.809Z,100165.53
2023-05-12T01:34:59.571Z,100156.50
2023-05-12T01:37:27.100Z,100164.34
2023-05-12T01:39:54.544Z,100130.41
2023-05-12T01:42:21.493Z,100171.28
2023-05-12T01:44:48.324Z,100135.97
2023-05-12T01:47:16.055Z,100166.00
2023-05-12T01:49:42.891Z,100173.84
2023-05-12T01:52:09.584Z,100135.00
2023-05-12T01:54:37.684Z,100140.88
2023-05-12T01:57:04.888Z,100134.00
2023-05-12T01:59:31.542Z,100132.06
2023-05-12T02:01:58.453Z,100169.09
2023-05-12T02:04:25.209Z,100168.41
2023-05-12T02:06:52.257Z,100154.72
2023-05-12T02:09:19.002Z,100177.16
2023-05-12T02:11:45.709Z,100175.84
2023-05-12T02:14:12.426Z,100120.91
2023-05-12T02:16:39.233Z,100162.63
2023-05-12T02:19:06.163Z,100151.34
2023-05-12T02:21:33.780Z,100156.19
2023-05-12T02:24:00.547Z,100169.13
2023-05-12T02:26:27.297Z,100140.97
2023-05-12T02:28:54.644Z,100174.22
2023-05-12T02:31:21.350Z,100093.38
2023-05-12T02:33:48.611Z,100121.41
2023-05-12T02:36:15.295Z,100172.97
2023-05-12T02:38:42.170Z,100140.78
2023-05-12T02:41:08.808Z,100168.91
2023-05-12T02:43:35.488Z,100165.00
2023-05-12T02:46:02.224Z,100175.88
2023-05-12T02:48:28.875Z,100176.94
2023-05-12T02:50:56.176Z,100171.81
2023-05-12T02:53:23.023Z,100179.44
2023-05-12T02:55:49.695Z,100160.53
2023-05-12T02:58:16.415Z,100167.06
2023-05-12T03:00:43.136Z,100169.94
2023-05-12T03:03:09.976Z,100159.47
2023-05-12T03:05:36.664Z,100168.09
2023-05-12T03:08:03.749Z,100141.19
2023-05-12T03:10:30.843Z,100174.16
2023-05-12T03:12:57.528Z,100181.81
2023-05-12T03:15:24.386Z,100159.41
2023-05-12T03:17:51.122Z,100178.53
2023-05-12T03:20:18.278Z,100164.66
2023-05-12T03:22:45.220Z,100179.84
2023-05-12T03:25:12.502Z,100181.00
2023-05-12T03:27:39.320Z,100172.34
2023-05-12T03:30:07.053Z,100174.97
2023-05-12T03:32:33.823Z,100160.53
2023-05-12T03:35:00.578Z,100154.31
2023-05-12T03:37:27.303Z,100185.69
2023-05-12T03:39:56.323Z,100180.81
2023-05-12T03:42:25.767Z,100177.81
2023-05-12T03:44:52.660Z,100187.50
2023-05-12T03:47:19.511Z,100183.38
2023-05-12T03:49:46.378Z,100181.00
2023-05-12T03:52:15.616Z,100182.22
2023-05-12T03:54:42.292Z,100188.38
2023-05-12T03:57:08.996Z,100189.78
2023-05-12T03:59:35.716Z,100185.72
2023-05-12T04:02:07.874Z,100189.94
2023-05-12T04:04:34.735Z,100189.72
2023-05-12T04:07:01.555Z,100182.41
2023-05-12T04:09:28.242Z,100193.78
2023-05-12T04:11:56.993Z,100185.19
2023-05-12T04:14:31.803Z,100161.09
2023-05-12T04:17:06.107Z,100174.13
2023-05-12T04:19:32.775Z,100190.75
2023-05-12T04:21:59.400Z,100178.28
2023-05-12T04:24:27.211Z,100202.91
2023-05-12T04:26:53.965Z,100202.69
2023-05-12T04:29:20.832Z,100209.06
2023-05-12T04:31:47.479Z,100192.75
2023-05-12T04:34:14.133Z,100209.59
2023-05-12T04:36:40.989Z,100204.78
2023-05-12T04:39:07.620Z,100204.72
2023-05-12T04:41:34.719Z,100204.94
2023-05-12T04:44:01.434Z,100209.13
2023-05-12T04:46:28.196Z,100213.44
2023-05-12T04:48:54.974Z,100213.78
2023-05-12T04:51:21.756Z,100215.13
2023-05-12T04:53:48.370Z,100213.47
2023-05-12T04:56:15.203Z,100189.88
2023-05-12T04:58:41.913Z,100212.09
2023-05-12T05:01:08.566Z,100212.66
2023-05-12T05:03:35.454Z,100202.06
2023-05-12T05:06:02.151Z,100190.72
2023-05-12T05:08:28.829Z,100210.47
2023-05-12T05:10:55.559Z,100199.66
2023-05-12T05:13:22.310Z,100195.63
2023-05-12T05:15:53.244Z,100206.84
2023-05-12T05:18:22.364Z,100199.78
2023-05-12T05:20:57.309Z,100213.47
2023-05-12T05:23:26.116Z,100205.47
2023-05-12T05:25:53.163Z,100203.16
2023-05-12T05:28:19.923Z,100215.66
2023-05-12T05:30:46.579Z,100176.31
2023-05-12T05:33:13.346Z,100188.38
2023-05-12T05:35:40.352Z,100219.41
2023-05-12T05:38:09.949Z,100197.91
2023-05-12T05:40:51.584Z,100225.75
2023-05-12T05:43:19.474Z,100228.84
2023-05-12T05:45:46.112Z,100219.88
2023-05-12T05:48:12.925Z,100223.88
2023-05-12T05:50:39.772Z,100213.69
2023-05-12T05:53:06.973Z,100229.06
2023-05-12T05:55:33.727Z,100220.97
2023-05-12T05:58:00.390Z,100218.88
2023-05-12T06:00:27.110Z,100229.28
2023-05-12T06:02:53.899Z,100217.34
2023-05-12T06:05:21.093Z,100225.06
2023-05-12T06:07:48.062Z,100221.22
2023-05-12T06:10:14.788Z,100236.72
2023-05-12T06:12:41.733Z,100225.00
2023-05-12T06:15:09.082Z,100217.41
2023-05-12T06:17:35.850Z,100205.69
2023-05-12T06:20:03.162Z,100209.94
2023-05-12T06:22:29.745Z,100229.19
2023-05-12T06:24:56.535Z,100225.31
2023-05-12T06:27:23.499Z,100231.19
2023-05-12T06:29:51.791Z,100222.06
2023-05-12T06:32:18.912Z,100227.59
2023-05-12T06:34:45.795Z,100242.84
2023-05-12T06:37:12.632Z,100187.50
2023-05-12T06:39:39.325Z,100228.44
2023-05-12T06:42:06.300Z,100241.94
2023-05-12T06:44:33.079Z,100239.94
2023-05-12T06:46:59.708Z,100230.53
2023-05-12T06:49:26.454Z,100215.75
2023-05-12T06:51:53.317Z,100229.53
2023-05-12T06:54:20.152Z,100246.97
2023-05-12T06:56:46.902Z,100241.88
2023-05-12T06:59:13.673Z,100246.59
2023-05-12T07:01:41.373Z,100230.81
2023-05-12T07:04:08.174Z,100226.19
2023-05-12T07:06:34.876Z,100225.13
2023-05-12T07:09:01.579Z,100234.50
2023-05-12T07:11:28.159Z,100217.81
2023-05-12T07:13:57.570Z,100232.69
2023-05-12T07:16:24.357Z,100163.56
2023-05-12T07:18:51.251Z,100224.56
2023-05-12T07:21:18.342Z,100244.03
2023-05-12T07:23:45.156Z,100248.25
2023-05-12T07:26:11.871Z,100238.28
2023-05-12T07:28:38.574Z,100244.34
2023-05-12T07:31:07.379Z,100231.13
2023-05-12T07:33:36.348Z,100191.78
2023-05-12T07:36:04.966Z,100195.34
2023-05-12T07:38:32.337Z,100243.38
2023-05-12T07:41:00.715Z,100260.66
2023-05-12T07:43:27.630Z,100234.38
2023-05-12T07:45:56.175Z,100213.72
2023-05-12T07:48:22.969Z,100253.66
2023-05-12T07:50:49.745Z,100239.22
2023-05-12T07:53:16.464Z,100239.84
2023-05-12T07:55:44.121Z,100218.56
2023-05-12T07:58:11.700Z,100246.13
2023-05-12T08:00:38.754Z,100215.59
2023-05-12T08:03:07.826Z,100251.53
2023-05-12T08:05:34.586Z,100240.94
2023-05-12T08:08:01.184Z,100216.16
2023-05-12T08:10:29.974Z,100229.41
2023-05-12T08:12:56.843Z,100243.16
2023-05-12T08:15:23.732Z,100223.91
2023-05-12T08:17:50.387Z,100218.88
2023-05-12T08:20:17.148Z,100236.28
2023-05-12T08:22:44.652Z,100224.94
2023-05-12T08:25:12.764Z,100213.09
2023-05-12T08:27:39.648Z,100188.34
2023-05-12T08:30:06.764Z,100226.53
2023-05-12T08:32:33.620Z,100207.56
2023-05-12T08:35:01.184Z,100201.69
2023-05-12T08:37:28.038Z,100209.25
2023-05-12T08:39:54.792Z,100220.81
2023-05-12T08:42:37.506Z,100200.25
2023-05-12T08:45:04.640Z,100204.94
2023-05-12T08:47:33.239Z,100220.38
2023-05-12T08:50:01.958Z,100221.00
2023-05-12T08:52:30.652Z,100208.16
2023-05-12T08:54:57.485Z,100210.47
2023-05-12T08:57:25.329Z,100185.69
2023-05-12T08:59:56.932Z,100191.72
2023-05-12T09:02:24.679Z,100199.09
2023-05-12T09:04:52.696Z,100206.72
2023-05-12T09:07:20.058Z,100221.78
2023-05-12T09:09:48.917Z,100206.47
2023-05-12T09:12:17.067Z,100164.41
2023-05-12T09:14:46.208Z,100183.41
2023-05-12T09:17:14.045Z,100191.25
2023-05-12T09:19:40.858Z,100183.16
2023-05-12T09:22:09.685Z,100185.16
2023-05-12T09:24:39.715Z,100191.25
2023-05-12T09:27:07.289Z,100181.47
2023-05-12T09:29:39.531Z,100201.09
2023-05-12T09:32:09.180Z,100200.06
2023-05-12T09:34:38.649Z,100204.59
2023-05-12T09:37:06.854Z,100199.09
2023-05-12T09:39:34.134Z,100158.59
2023-05-12T09:42:00.927Z,100202.59
2023-05-12T09:44:29.458Z,100180.66
2023-05-12T09:46:56.149Z,100179.22
2023-05-12T09:49:26.061Z,100188.25
2023-05-12T09:51:56.389Z,100175.00
2023-05-12T09:54:31.142Z,100159.94
2023-05-12T09:57:02.947Z,100184.97
2023-05-12T09:59:34.594Z,100186.03
2023-05-12T10:02:04.807Z,100171.16
2023-05-12T10:04:53.243Z,100179.63
2023-05-12T10:07:23.068Z,100174.00
2023-05-12T10:09:50.088Z,100152.19
2023-05-12T10:12:18.482Z,100166.72
2023-05-12T10:14:46.248Z,100144.22
2023-05-12T10:17:38.593Z,100170.13
2023-05-12T10:20:07.017Z,100114.28
2023-05-12T10:22:35.385Z,100173.63
2023-05-12T10:25:05.664Z,100153.03
2023-05-12T10:27:33.837Z,100162.25
2023-05-12T10:30:01.688Z,100111.53
2023-05-12T10:32:29.044Z,100109.59
2023-05-12T10:34:56.627Z,100142.59
2023-05-12T10:37:24.629Z,100107.13
2023-05-12T10:39:53.059Z,100067.81
2023-05-12T10:42:26.120Z,100118.69
2023-05-12T10:44:58.228Z,100133.09
2023-05-12T10:47:37.220Z,100129.09
2023-05-12T10:50:04.279Z,100154.47
2023-05-12T10:52:31.058Z,100149.53
2023-05-12T10:55:02.258Z,100147.69
2023-05-12T10:57:31.056Z,100146.31
2023-05-12T10:59:59.832Z,100137.97
2023-05-12T11:02:33.821Z,100134.16
2023-05-12T11:05:06.780Z,100142.13
2023-05-12T11:07:35.346Z,100104.00
2023-05-12T11:10:05.472Z,100149.25
2023-05-12T11:12:35.510Z,100109.38
2023-05-12T11:15:03.892Z,100157.41
2023-05-12T11:17:30.680Z,100142.44
2023-05-12T11:19:58.439Z,100147.13
2023-05-12T11:22:25.701Z,100077.91
2023-05-12T11:24:53.123Z,100142.91
2023-05-12T11:27:21.167Z,100136.75
2023-05-12T11:30:06.706Z,100113.03
2023-05-12T11:32:33.487Z,100138.03
2023-05-12T11:35:17.643Z,100114.66
2023-05-12T11:37:45.548Z,100116.88
2023-05-12T11:40:21.081Z,100106.53
2023-05-12T11:42:51.548Z,100115.03
2023-05-12T11:45:25.284Z,100121.34
2023-05-12T11:47:53.735Z,100113.59
2023-05-12T11:50:24.522Z,100110.00
2023-05-12T11:52:53.425Z,100117.09
2023-05-12T11:55:24.462Z,100111.53
2023-05-12T11:58:02.006Z,100113.56
2023-05-12T12:00:37.796Z,100041.09
2023-05-12T12:03:15.101Z,100102.44
2023-05-12T12:05:45.515Z,100101.41
2023-05-12T12:08:13.506Z,100117.59
2023-05-12T12:10:44.648Z,100093.75
2023-05-12T12:13:11.855Z,100081.66
2023-05-12T12:15:38.982Z,100051.56
2023-05-12T12:18:05.762Z,100085.53
2023-05-12T12:20:32.715Z,100083.97
2023-05-12T12:22:59.561Z,100102.72
2023-05-12T12:25:26.941Z,100104.53
2023-05-12T12:27:53.693Z,100103.78
2023-05-12T12:30:20.609Z,100052.75
2023-05-12T12:32:47.789Z,100100.09
2023-05-12T12:35:14.606Z,100099.22
2023-05-12T12:37:42.142Z,100094.97
2023-05-12T12:40:10.212Z,100086.00
2023-05-12T12:42:38.536Z,100047.81
2023-05-12T12:45:05.705Z,100045.84
2023-05-12T12:47:32.573Z,100065.72
2023-05-12T12:49:59.897Z,100089.06
2023-05-12T12:52:26.965Z,100048.03
2023-05-12T12:54:53.751Z,100070.66
2023-05-12T12:57:22.252Z,100078.66
2023-05-12T12:59:49.712Z,100074.91
2023-05-12T13:02:16.962Z,100070.91
2023-05-12T13:04:43.801Z,100019.75
2023-05-12T13:07:10.670Z,100073.81
2023-05-12T13:09:37.531Z,100066.66
2023-05-12T13:12:04.495Z,100047.22
2023-05-12T13:14:31.654Z,100062.59
2023-05-12T13:16:58.506Z,100035.91
2023-05-12T13:19:25.419Z,100068.59
2023-05-12T13:21:52.119Z,100064.34
2023-05-12T13:24:19.037Z,100060.25
2023-05-12T13:26:46.098Z,100066.03
2023-05-12T13:29:13.167Z,100070.66
2023-05-12T13:31:41.318Z,100069.88
2023-05-12T13:34:08.335Z,100052.66
2023-05-12T13:36:35.734Z,100066.38
2023-05-12T13:39:03.720Z,100064.56
2023-05-12T13:41:32.713Z,100056.56
2023-05-12T13:43:59.582Z,100010.31
2023-05-12T13:46:26.493Z,100054.06
2023-05-12T13:48:53.970Z,100025.09
2023-05-12T13:51:21.690Z,99970.78
2023-05-12T13:53:48.610Z,100008.38
2023-05-12T13:56:16.718Z,100036.81
2023-05-12T13:58:47.027Z,99996.50
2023-05-12T14:01:24.751Z,100052.16
2023-05-12T14:03:53.812Z,99949.78
2023-05-12T14:06:20.601Z,100007.03
2023-05-12T14:09:13.365Z,100041.38
2023-05-12T14:11:40.108Z,99983.34
2023-05-12T14:14:07.170Z,100040.78
2023-05-12T14:16:34.276Z,99986.16
2023-05-12T14:19:01.271Z,100034.72
2023-05-12T14:21:31.846Z,100007.06
2023-05-12T14:23:58.606Z,100018.28
2023-05-12T14:26:28.385Z,100036.13
2023-05-12T14:28:55.951Z,100045.47
2023-05-12T14:31:22.762Z,100040.16
2023-05-12T14:33:49.708Z,100049.84
2023-05-12T14:36:16.358Z,99976.00
2023-05-12T14:38:43.077Z,100001.50
2023-05-12T14:41:10.188Z,100044.88
2023-05-12T14:43:37.495Z,100037.63
2023-05-12T14:46:04.746Z,100044.78
2023-05-12T14:48:31.860Z,100014.44
2023-05-12T14:50:58.603Z,100030.13
2023-05-12T14:53:25.397Z,100047.47
2023-05-12T14:55:52.408Z,100040.34
2023-05-12T14:58:22.745Z,99998.44
2023-05-12T15:00:52.844Z,100044.88
2023-05-12T15:03:21.345Z,100035.50
2023-05-12T15:06:04.739Z,100041.13
2023-05-12T15:08:32.129Z,100037.19
2023-05-12T15:10:58.785Z,100022.06
2023-05-12T15:13:25.759Z,100023.66
2023-05-12T15:15:55.177Z,99999.91
2023-05-12T15:18:23.477Z,100019.59
2023-05-12T15:20:50.148Z,100020.66
2023-05-12T15:23:16.855Z,100013.97
2023-05-12T15:25:43.538Z,100013.22
2023-05-12T15:28:10.266Z,100026.06
2023-05-12T15:30:37.161Z,100006.28
2023-05-12T15:33:04.417Z,100007.13
2023-05-12T15:35:31.213Z,99997.41
2023-05-12T15:37:57.982Z,100016.53
2023-05-12T15:40:25.106Z,100015.38
2023-05-12T15:42:51.979Z,99998.59
2023-05-12T15:45:19.180Z,100022.28
2023-05-12T15:47:46.119Z,100020.88
2023-05-12T15:50:12.877Z,100023.53
2023-05-12T15:52:39.554Z,100022.06
2023-05-12T15:55:06.590Z,100025.22
2023-05-12T15:57:33.309Z,100013.84
2023-05-12T16:00:02.317Z,100013.53
2023-05-12T16:02:29.534Z,100016.22
2023-05-12T16:04:56.726Z,100024.13
2023-05-12T16:07:23.389Z,100018.47
2023-05-12T16:09:50.034Z,100003.38
2023-05-12T16:12:17.780Z,100015.72
2023-05-12T16:14:44.708Z,100016.91
2023-05-12T16:17:11.484Z,100023.94
2023-05-12T16:19:38.352Z,100013.56
2023-05-12T16:22:05.286Z,100019.28
2023-05-12T16:24:31.976Z,100022.34
2023-05-12T16:26:59.490Z,100014.09
2023-05-12T16:29:26.511Z,100024.63
2023-05-12T16:31:53.825Z,100006.44
2023-05-12T16:34:20.727Z,100015.13
2023-05-12T16:36:47.401Z,100028.75
2023-05-12T16:39:14.278Z,99995.09
2023-05-12T16:41:41.121Z,100006.91
2023-05-12T16:44:07.801Z,100040.50
2023-05-12T16:46:34.671Z,100033.97
2023-05-12T16:49:02.035Z,100034.34
2023-05-12T16:51:31.128Z,100026.50
2023-05-12T16:53:58.016Z,100029.44
2023-05-12T16:56:26.040Z,100031.66
2023-05-12T16:58:52.678Z,100038.53
2023-05-12T17:01:19.535Z,100032.69
2023-05-12T17:03:46.324Z,100040.72
2023-05-12T17:06:13.325Z,100047.44
2023-05-12T17:08:39.990Z,100049.31
2023-05-12T17:11:06.862Z,100031.72
2023-05-12T17:13:36.835Z,100058.72
2023-05-12T17:16:04.450Z,100067.69
2023-05-12T17:18:31.558Z,100035.19
2023-05-12T17:20:59.027Z,100061.81
2023-05-12T17:23:26.962Z,100061.56
2023-05-12T17:25:54.233Z,100059.81
2023-05-12T17:28:21.340Z,100057.28
2023-05-12T17:30:51.525Z,100066.66
2023-05-12T17:33:18.286Z,100076.22
2023-05-12T17:35:53.991Z,100049.81
2023-05-12T17:38:30.475Z,100070.50
2023-05-12T17:40:57.471Z,100072.94
2023-05-12T17:43:24.348Z,100072.22
2023-05-12T17:45:51.092Z,100077.72
2023-05-12T17:48:17.790Z,100053.41
2023-05-12T17:50:44.465Z,100047.38
2023-05-12T17:53:11.717Z,100059.28
2023-05-12T17:55:38.517Z,100085.06
2023-05-12T17:58:05.303Z,100074.97
2023-05-12T18:00:31.990Z,100077.31
2023-05-12T18:02:58.740Z,100056.00
2023-05-12T18:05:25.522Z,100084.06
2023-05-12T18:07:54.909Z,100094.56
2023-05-12T18:10:21.796Z,100088.94
2023-05-12T18:12:48.528Z,100090.00
2023-05-12T18:15:17.122Z,100095.19
2023-05-12T18:17:43.885Z,100096.56
2023-05-12T18:20:11.010Z,100089.78
2023-05-12T18:22:37.681Z,100091.13
2023-05-12T18:25:04.569Z,100099.03
2023-05-12T18:27:31.364Z,100096.19
2023-05-12T18:29:58.103Z,100110.91
2023-05-12T18:32:26.242Z,100083.50
2023-05-12T18:34:53.063Z,100099.00
2023-05-12T18:37:20.235Z,100112.78
2023-05-12T18:39:46.860Z,100096.78
2023-05-12T18:42:13.648Z,100119.16
2023-05-12T18:44:41.369Z,100121.81
2023-05-12T18:47:09.071Z,100119.63
2023-05-12T18:49:36.743Z,100125.41
2023-05-12T18:52:03.982Z,100115.97
2023-05-12T18:54:30.685Z,100122.03
2023-05-12T18:56:57.421Z,100110.81
2023-05-12T18:59:24.194Z,100128.50
2023-05-12T19:01:51.084Z,100135.28
2023-05-12T19:04:19.619Z,100134.94
2023-05-12T19:06:50.623Z,100143.34
2023-05-12T19:09:17.358Z,100138.25
2023-05-12T19:11:44.417Z,100145.22
2023-05-12T19:14:12.126Z,100130.75
2023-05-12T19:16:39.979Z,100135.31
2023-05-12T19:19:06.821Z,100108.19
2023-05-12T19:21:33.731Z,100132.00
2023-05-12T19:24:01.306Z,100126.75
2023-05-12T19:26:28.004Z,100119.59
2023-05-12T19:28:54.698Z,100116.78
2023-05-12T19:31:21.371Z,100122.00
2023-05-12T19:33:48.113Z,100101.34
2023-05-12T19:36:15.026Z,100096.69
2023-05-12T19:38:43.682Z,100113.28
2023-05-12T19:41:11.127Z,100106.03
2023-05-12T19:43:37.907Z,100107.97
2023-05-12T19:46:04.664Z,100103.50
2023-05-12T19:48:36.425Z,100113.34
2023-05-12T19:51:03.319Z,100102.78
2023-05-12T19:53:30.078Z,100111.66
2023-05-12T19:55:56.954Z,100094.06
2023-05-12T19:58:25.248Z,100117.78
2023-05-12T20:00:52.048Z,100121.06
2023-05-12T20:03:19.149Z,100093.31
2023-05-12T20:05:47.288Z,100096.53
2023-05-12T20:08:15.155Z,100092.94
2023-05-12T20:10:41.952Z,100107.09
2023-05-12T20:13:08.732Z,100105.38
2023-05-12T20:15:35.919Z,100105.88
2023-05-12T20:18:02.723Z,100084.16
2023-05-12T20:20:29.537Z,100092.81
2023-05-12T20:22:56.297Z,100109.63
2023-05-12T20:25:23.372Z,100113.22
2023-05-12T20:27:50.237Z,100107.44
2023-05-12T20:30:16.942Z,100102.31
2023-05-12T20:32:43.914Z,100110.47
2023-05-12T20:35:10.741Z,100102.50
2023-05-12T20:37:37.444Z,100095.44
2023-05-12T20:40:05.437Z,100084.13
2023-05-12T20:42:32.105Z,100110.94
2023-05-12T20:44:59.288Z,100117.78
2023-05-12T20:47:26.053Z,100115.25
2023-05-12T20:50:00.890Z,100107.50
2023-05-12T20:52:29.918Z,100128.06
2023-05-12T20:54:58.257Z,100102.91
2023-05-12T20:57:26.049Z,100129.63
2023-05-12T20:59:53.174Z,100116.78
2023-05-12T21:02:38.325Z,100130.22
2023-05-12T21:05:09.531Z,100136.59
2023-05-12T21:07:36.547Z,100137.50
2023-05-12T21:10:04.850Z,100129.69
2023-05-12T21:12:31.914Z,100137.63
2023-05-12T21:14:58.720Z,100131.25
2023-05-12T21:17:25.675Z,100116.84
2023-05-12T21:19:52.427Z,100141.97
2023-05-12T21:22:19.247Z,100130.91
2023-05-12T21:24:45.834Z,100125.78
2023-05-12T21:27:12.457Z,100132.06
2023-05-12T21:29:39.140Z,100127.13
2023-05-12T21:32:06.317Z,100135.38
2023-05-12T21:34:33.903Z,100132.84
2023-05-12T21:37:00.771Z,100140.50
2023-05-12T21:39:28.060Z,100132.66
2023-05-12T21:41:54.900Z,100122.56
2023-05-12T21:44:21.562Z,100107.38
2023-05-12T21:46:48.342Z,100111.16
2023-05-12T21:49:15.051Z,100134.50
2023-05-12T21:51:42.108Z,100130.50
2023-05-12T21:54:09.102Z,100129.63
2023-05-12T21:56:35.816Z,100120.16
2023-05-12T21:59:02.450Z,100122.78
2023-05-12T22:01:29.970Z,100116.34
2023-05-12T22:04:00.104Z,100127.13
2023-05-12T22:06:27.082Z,100134.63
2023-05-12T22:08:54.256Z,100142.44
2023-05-12T22:11:21.874Z,100139.13
2023-05-12T22:13:48.811Z,100138.81
2023-05-12T22:16:15.732Z,100134.38
2023-05-12T22:18:45.919Z,100104.50
2023-05-12T22:21:13.205Z,100131.50
2023-05-12T22:23:41.881Z,100121.63
2023-05-12T22:26:09.354Z,100139.84
2023-05-12T22:28:36.277Z,100137.81
2023-05-12T22:31:03.177Z,100124.88
2023-05-12T22:33:29.823Z,100124.09
2023-05-12T22:35:59.032Z,100141.75
2023-05-12T22:38:26.408Z,100107.44
2023-05-12T22:40:53.491Z,100122.47
2023-05-12T22:43:20.180Z,100134.41
2023-05-12T22:45:53.155Z,100128.28
2023-05-12T22:48:20.369Z,100135.81
2023-05-12T22:50:47.285Z,100124.81
2023-05-12T22:53:14.229Z,100121.94
2023-05-12T22:55:41.165Z,100128.19
2023-05-12T22:58:07.905Z,100131.19
2023-05-12T23:00:34.602Z,100102.66
2023-05-12T23:03:01.399Z,100129.75
2023-05-12T23:05:28.187Z,100140.13
2023-05-12T23:07:54.902Z,100129.66
2023-05-12T23:10:21.764Z,100130.25
2023-05-12T23:12:48.649Z,100131.78
2023-05-12T23:15:15.337Z,100127.16
2023-05-12T23:17:42.102Z,100125.63
2023-05-12T23:20:09.172Z,100125.78
2023-05-12T23:22:35.787Z,100131.81
2023-05-12T23:25:02.426Z,100136.25
2023-05-12T23:27:29.057Z,100129.09
2023-05-12T23:29:55.824Z,100112.16
2023-05-12T23:32:22.565Z,100091.69
2023-05-12T23:34:49.371Z,100118.44
2023-05-12T23:37:16.010Z,100128.81
2023-05-12T23:39:42.647Z,100127.38
2023-05-12T23:42:09.361Z,100116.59
2023-05-12T23:44:36.170Z,100128.50
2023-05-12T23:47:02.900Z,100131.28
2023-05-12T23:49:29.567Z,100118.34
2023-05-12T23:51:56.185Z,100119.84
2023-05-12T23:54:22.932Z,100139.28
2023-05-12T23:56:49.629Z,100133.63
2023-05-12T23:59:16.709Z,100134.19
